createdAt,value
2018-09-02T00:00:36.416Z,13.83
2018-09-02T00:03:05.309Z,14.07
2018-09-02T00:05:33.673Z,11.80
2018-09-02T00:08:01.721Z,13.90
2018-09-02T00:10:30.749Z,15.20
2018-09-02T00:12:58.817Z,12.07
2018-09-02T00:15:26.865Z,9.77
2018-09-02T00:17:54.970Z,11.50
2018-09-02T00:20:23.101Z,12.33
2018-09-02T00:22:51.206Z,9.37
2018-09-02T00:25:19.613Z,17.53
2018-09-02T00:27:47.692Z,11.87
2018-09-02T00:30:15.780Z,12.50
2018-09-02T00:32:43.810Z,13.73
2018-09-02T00:35:11.917Z,10.70
2018-09-02T00:37:39.933Z,13.97
2018-09-02T00:40:08.006Z,10.00
2018-09-02T00:42:36.070Z,15.03
2018-09-02T00:45:04.467Z,15.70
2018-09-02T00:47:32.517Z,12.70
2018-09-02T00:50:00.574Z,16.60
2018-09-02T00:52:28.619Z,18.50
2018-09-02T00:54:56.670Z,13.20
2018-09-02T00:57:24.717Z,15.50
2018-09-02T00:59:52.772Z,13.00
2018-09-02T01:02:20.846Z,11.63
2018-09-02T01:04:48.898Z,20.17
2018-09-02T01:07:16.989Z,17.13
2018-09-02T01:09:45.045Z,20.63
2018-09-02T01:12:13.090Z,17.80
2018-09-02T01:14:41.155Z,11.20
2018-09-02T01:17:09.188Z,17.70
2018-09-02T01:19:37.249Z,14.23
2018-09-02T01:22:05.429Z,13.63
2018-09-02T01:24:33.505Z,13.90
2018-09-02T01:27:01.548Z,15.50
2018-09-02T01:29:29.597Z,15.17
2018-09-02T01:31:57.677Z,19.03
2018-09-02T01:34:25.730Z,13.60
2018-09-02T01:36:53.781Z,15.90
2018-09-02T01:39:21.829Z,15.00
2018-09-02T01:41:49.884Z,12.63
2018-09-02T01:44:18.201Z,20.00
2018-09-02T01:46:46.233Z,15.10
2018-09-02T01:49:14.355Z,13.13
2018-09-02T01:51:42.393Z,14.93
2018-09-02T01:54:10.476Z,17.80
2018-09-02T01:56:38.485Z,14.33
2018-09-02T01:59:06.557Z,16.97
2018-09-02T02:01:34.629Z,14.03
2018-09-02T02:04:02.781Z,16.60
2018-09-02T02:06:30.817Z,16.63
2018-09-02T02:08:58.850Z,12.50
2018-09-02T02:11:26.910Z,17.47
2018-09-02T02:13:55.272Z,13.47
2018-09-02T02:16:23.367Z,11.37
2018-09-02T02:18:51.425Z,19.07
2018-09-02T02:21:19.583Z,15.10
2018-09-02T02:23:47.735Z,12.83
2018-09-02T02:26:15.783Z,14.60
2018-09-02T02:28:43.825Z,14.30
2018-09-02T02:31:11.871Z,15.97
2018-09-02T02:33:39.943Z,13.80
2018-09-02T02:36:07.998Z,13.50
2018-09-02T02:38:36.053Z,14.70
2018-09-02T02:41:04.327Z,13.93
2018-09-02T02:43:32.370Z,15.70
2018-09-02T02:46:00.421Z,13.97
2018-09-02T02:48:28.481Z,16.10
2018-09-02T02:50:56.538Z,29.17
2018-09-02T02:53:24.671Z,13.50
2018-09-02T02:55:53.708Z,13.80
2018-09-02T02:58:22.013Z,14.80
2018-09-02T03:00:50.054Z,13.93
2018-09-02T03:03:18.094Z,15.50
2018-09-02T03:05:46.142Z,17.33
2018-09-02T03:08:14.193Z,13.23
2018-09-02T03:10:42.327Z,18.57
2018-09-02T03:13:10.335Z,14.40
2018-09-02T03:15:38.392Z,15.53
2018-09-02T03:18:06.456Z,19.53
2018-09-02T03:20:34.550Z,16.00
2018-09-02T03:23:02.639Z,13.30
2018-09-02T03:25:30.690Z,13.17
2018-09-02T03:27:58.766Z,16.40
2018-09-02T03:30:26.809Z,15.40
2018-09-02T03:32:54.870Z,11.73
2018-09-02T03:35:23.399Z,13.83
2018-09-02T03:37:51.437Z,12.53
2018-09-02T03:40:19.475Z,13.60
2018-09-02T03:42:47.522Z,13.97
2018-09-02T03:45:15.574Z,10.00
2018-09-02T03:47:44.336Z,18.73
2018-09-02T03:50:12.357Z,12.07
2018-09-02T03:52:40.402Z,11.30
2018-09-02T03:55:08.445Z,12.70
2018-09-02T03:57:36.513Z,12.70
2018-09-02T04:00:04.553Z,13.77
2018-09-02T04:02:32.617Z,15.33
2018-09-02T04:05:00.670Z,12.90
2018-09-02T04:07:28.733Z,14.87
2018-09-02T04:09:56.768Z,14.50
2018-09-02T04:12:24.842Z,11.30
2018-09-02T04:14:52.954Z,12.90
2018-09-02T04:17:21.018Z,12.10
2018-09-02T04:19:49.065Z,11.33
2018-09-02T04:22:17.161Z,17.17
2018-09-02T04:24:45.249Z,16.10
2018-09-02T04:27:13.282Z,22.40
2018-09-02T04:29:41.341Z,15.60
2018-09-02T04:32:09.398Z,11.20
2018-09-02T04:34:37.434Z,12.97
2018-09-02T04:37:06.347Z,14.60
2018-09-02T04:39:34.386Z,13.10
2018-09-02T04:42:02.499Z,16.10
2018-09-02T04:44:30.544Z,13.23
2018-09-02T04:46:58.598Z,20.27
2018-09-02T04:49:26.633Z,15.20
2018-09-02T04:51:54.679Z,14.37
2018-09-02T04:54:22.740Z,18.00
2018-09-02T04:56:50.781Z,17.30
2018-09-02T04:59:18.823Z,16.30
2018-09-02T05:01:46.885Z,15.00
2018-09-02T05:04:15.017Z,19.33
2018-09-02T05:06:44.478Z,15.57
2018-09-02T05:09:12.542Z,18.97
2018-09-02T05:11:40.703Z,18.20
2018-09-02T05:14:09.059Z,19.30
2018-09-02T05:16:37.042Z,19.27
2018-09-02T05:19:05.122Z,20.60
2018-09-02T05:21:33.181Z,20.40
2018-09-02T05:24:01.243Z,20.10
2018-09-02T05:26:29.301Z,19.87
2018-09-02T05:28:57.357Z,22.73
2018-09-02T05:31:25.414Z,22.20
2018-09-02T05:33:53.486Z,22.33
2018-09-02T05:36:21.526Z,21.23
2018-09-02T05:38:49.590Z,23.83
2018-09-02T05:41:18.155Z,24.37
2018-09-02T05:43:46.234Z,21.80
2018-09-02T05:46:14.295Z,24.13
2018-09-02T05:48:42.362Z,24.30
2018-09-02T05:51:10.899Z,22.47
2018-09-02T05:53:38.953Z,25.43
2018-09-02T05:56:06.998Z,21.90
2018-09-02T05:58:35.052Z,21.10
2018-09-02T06:01:03.328Z,26.43
2018-09-02T06:03:31.373Z,24.17
2018-09-02T06:05:59.471Z,25.53
2018-09-02T06:08:27.514Z,21.50
2018-09-02T06:10:55.577Z,20.97
2018-09-02T06:13:23.626Z,18.17
2018-09-02T06:15:52.341Z,22.60
2018-09-02T06:18:20.420Z,17.70
2018-09-02T06:20:48.482Z,21.70
2018-09-02T06:23:16.549Z,24.53
2018-09-02T06:25:44.602Z,21.93
2018-09-02T06:28:12.658Z,19.37
2018-09-02T06:30:40.719Z,19.90
2018-09-02T06:33:09.003Z,20.40
2018-09-02T06:35:37.076Z,18.37
2018-09-02T06:38:05.749Z,20.10
2018-09-02T06:40:34.934Z,19.93
2018-09-02T06:43:02.989Z,18.83
2018-09-02T06:45:31.603Z,22.27
2018-09-02T06:47:59.630Z,24.37
2018-09-02T06:50:27.707Z,20.00
2018-09-02T06:52:55.738Z,17.37
2018-09-02T06:55:23.817Z,18.93
2018-09-02T06:57:51.862Z,19.50
2018-09-02T07:00:20.138Z,22.30
2018-09-02T07:02:48.313Z,18.20
2018-09-02T07:05:16.517Z,17.83
2018-09-02T07:07:44.561Z,16.67
2018-09-02T07:10:12.621Z,22.43
2018-09-02T07:12:40.662Z,26.30
2018-09-02T07:15:08.761Z,22.80
2018-09-02T07:17:36.804Z,22.60
2018-09-02T07:20:05.763Z,21.57
2018-09-02T07:22:33.802Z,19.70
2018-09-02T07:25:02.522Z,18.27
2018-09-02T07:27:30.601Z,21.07
2018-09-02T07:29:58.685Z,20.00
2018-09-02T07:32:26.734Z,24.70
2018-09-02T07:34:54.793Z,16.30
2018-09-02T07:37:22.845Z,19.90
2018-09-02T07:39:50.917Z,23.20
2018-09-02T07:42:18.985Z,19.43
2018-09-02T07:44:47.041Z,21.40
2018-09-02T07:47:15.621Z,18.57
2018-09-02T07:49:43.664Z,15.57
2018-09-02T07:52:11.744Z,20.37
2018-09-02T07:54:39.896Z,21.17
2018-09-02T07:57:07.841Z,13.20
2018-09-02T07:59:35.894Z,15.50
2018-09-02T08:02:03.960Z,14.80
2018-09-02T08:04:32.014Z,12.60
2018-09-02T08:07:00.066Z,11.90
2018-09-02T08:09:28.323Z,11.97
2018-09-02T08:11:56.359Z,13.73
2018-09-02T08:14:24.410Z,12.20
2018-09-02T08:16:52.449Z,9.57
2018-09-02T08:19:20.510Z,9.63
2018-09-02T08:21:48.635Z,11.70
2018-09-02T08:24:16.712Z,9.90
2018-09-02T08:26:44.862Z,11.67
2018-09-02T08:29:12.911Z,13.83
2018-09-02T08:31:40.979Z,10.93
2018-09-02T08:34:09.174Z,16.00
2018-09-02T08:36:37.237Z,10.67
2018-09-02T08:39:07.417Z,9.73
2018-09-02T08:41:35.624Z,10.17
2018-09-02T08:44:03.731Z,10.60
2018-09-02T08:46:31.758Z,12.43
2018-09-02T08:48:59.822Z,12.00
2018-09-02T08:51:28.023Z,9.63
2018-09-02T08:53:56.060Z,9.03
2018-09-02T08:56:24.106Z,6.60
2018-09-02T08:58:52.178Z,6.43
2018-09-02T09:01:20.213Z,9.90
2018-09-02T09:03:48.306Z,15.63
2018-09-02T09:06:16.360Z,13.83
2018-09-02T09:08:44.547Z,13.83
2018-09-02T09:11:12.445Z,7.07
2018-09-02T09:13:40.502Z,12.00
2018-09-02T09:16:08.557Z,11.97
2018-09-02T09:18:36.593Z,8.17
2018-09-02T09:21:04.916Z,14.93
2018-09-02T09:23:32.972Z,6.73
2018-09-02T09:26:01.036Z,7.27
2018-09-02T09:28:29.101Z,10.40
2018-09-02T09:30:57.168Z,7.50
2018-09-02T09:33:25.226Z,8.87
2018-09-02T09:35:53.288Z,8.93
2018-09-02T09:38:21.331Z,9.37
2018-09-02T09:40:49.385Z,7.43
2018-09-02T09:43:17.475Z,6.97
2018-09-02T09:45:45.508Z,7.20
2018-09-02T09:48:13.592Z,9.77
2018-09-02T09:50:41.649Z,7.00
2018-09-02T09:53:09.791Z,12.17
2018-09-02T09:55:37.931Z,5.80
2018-09-02T09:58:05.930Z,5.00
2018-09-02T10:00:39.196Z,4.80
2018-09-02T10:03:07.271Z,8.57
2018-09-02T10:05:35.345Z,9.20
2018-09-02T10:08:03.407Z,7.17
2018-09-02T10:10:31.556Z,7.57
2018-09-02T10:12:59.546Z,7.97
2018-09-02T10:15:27.588Z,6.20
2018-09-02T10:17:55.669Z,10.20
2018-09-02T10:20:23.714Z,4.63
2018-09-02T10:22:51.779Z,7.60
2018-09-02T10:25:19.842Z,5.37
2018-09-02T10:27:47.899Z,7.70
2018-09-02T10:30:15.925Z,5.20
2018-09-02T10:32:43.969Z,7.93
2018-09-02T10:35:12.055Z,13.87
2018-09-02T10:37:40.112Z,8.17
2018-09-02T10:40:08.266Z,8.87
2018-09-02T10:42:36.325Z,11.33
2018-09-02T10:45:04.471Z,4.90
2018-09-02T10:47:32.549Z,6.27
2018-09-02T10:50:00.606Z,5.53
2018-09-02T10:52:28.684Z,9.30
2018-09-02T10:54:56.745Z,11.00
2018-09-02T10:57:24.789Z,3.50
2018-09-02T10:59:52.894Z,5.63
2018-09-02T11:02:21.202Z,6.93
2018-09-02T11:04:49.265Z,5.80
2018-09-02T11:07:17.313Z,6.50
2018-09-02T11:09:45.434Z,6.70
2018-09-02T11:12:13.534Z,15.53
2018-09-02T11:14:41.650Z,7.03
2018-09-02T11:17:09.738Z,6.60
2018-09-02T11:19:37.778Z,7.77
2018-09-02T11:22:05.845Z,8.03
2018-09-02T11:24:33.910Z,4.60
2018-09-02T11:27:02.217Z,5.70
2018-09-02T11:29:30.274Z,7.73
2018-09-02T11:31:58.322Z,6.67
2018-09-02T11:34:26.370Z,5.27
2018-09-02T11:36:54.453Z,9.90
2018-09-02T11:39:22.538Z,4.50
2018-09-02T11:41:50.608Z,12.33
2018-09-02T11:44:18.680Z,12.43
2018-09-02T11:46:46.730Z,5.63
2018-09-02T11:49:14.773Z,22.43
2018-09-02T11:51:42.826Z,5.10
2018-09-02T11:54:10.884Z,5.83
2018-09-02T11:56:38.952Z,6.73
2018-09-02T11:59:07.241Z,5.43
2018-09-02T12:01:35.297Z,4.53
2018-09-02T12:04:03.507Z,5.43
2018-09-02T12:06:31.512Z,6.30
2018-09-02T12:08:59.591Z,10.20
2018-09-02T12:11:28.483Z,5.80
2018-09-02T12:13:56.547Z,6.43
2018-09-02T12:16:24.571Z,4.67
2018-09-02T12:18:52.613Z,11.07
2018-09-02T12:21:20.678Z,19.33
2018-09-02T12:23:48.737Z,13.97
2018-09-02T12:26:16.790Z,5.57
2018-09-02T12:28:45.005Z,4.47
2018-09-02T12:31:13.069Z,5.60
2018-09-02T12:33:41.278Z,7.33
2018-09-02T12:36:09.390Z,8.10
2018-09-02T12:38:37.712Z,20.27
2018-09-02T12:41:05.749Z,6.13
2018-09-02T12:43:33.830Z,5.03
2018-09-02T12:46:01.894Z,4.80
2018-09-02T12:48:30.194Z,7.17
2018-09-02T12:50:58.240Z,3.30
2018-09-02T12:53:26.437Z,3.80
2018-09-02T12:55:54.547Z,8.00
2018-09-02T12:58:22.600Z,6.23
2018-09-02T13:00:50.643Z,6.07
2018-09-02T13:03:18.695Z,4.80
2018-09-02T13:05:46.780Z,4.80
2018-09-02T13:08:14.834Z,7.23
2018-09-02T13:10:42.894Z,5.47
2018-09-02T13:13:10.926Z,5.03
2018-09-02T13:15:39.042Z,7.40
2018-09-02T13:18:07.251Z,7.73
2018-09-02T13:20:35.313Z,5.73
2018-09-02T13:23:03.852Z,8.30
2018-09-02T13:25:31.909Z,5.50
2018-09-02T13:27:59.970Z,6.43
2018-09-02T13:30:28.066Z,3.40
2018-09-02T13:32:56.106Z,11.70
2018-09-02T13:35:24.166Z,4.30
2018-09-02T13:37:52.265Z,5.10
2018-09-02T13:40:20.385Z,38.80
2018-09-02T13:42:48.378Z,10.53
2018-09-02T13:45:16.430Z,5.17
2018-09-02T13:47:44.472Z,5.77
2018-09-02T13:50:12.510Z,6.33
2018-09-02T13:52:40.545Z,9.40
2018-09-02T13:55:08.614Z,4.83
2018-09-02T13:57:36.675Z,28.17
2018-09-02T14:00:04.765Z,4.83
2018-09-02T14:02:32.817Z,4.57
2018-09-02T14:05:00.922Z,5.87
2018-09-02T14:07:29.445Z,21.00
2018-09-02T14:09:57.489Z,5.03
2018-09-02T14:12:25.625Z,6.37
2018-09-02T14:14:53.694Z,6.43
2018-09-02T14:17:21.773Z,6.10
2018-09-02T14:19:49.853Z,20.03
2018-09-02T14:22:17.913Z,5.00
2018-09-02T14:24:46.031Z,5.70
2018-09-02T14:27:14.362Z,5.63
2018-09-02T14:29:42.427Z,6.53
2018-09-02T14:32:11.526Z,5.77
2018-09-02T14:34:39.603Z,10.23
2018-09-02T14:37:07.724Z,3.50
2018-09-02T14:39:35.847Z,8.37
2018-09-02T14:42:04.537Z,6.07
2018-09-02T14:44:32.735Z,4.23
2018-09-02T14:47:00.974Z,7.20
2018-09-02T14:49:29.083Z,6.50
2018-09-02T14:51:57.211Z,5.37
2018-09-02T14:54:25.529Z,10.43
2018-09-02T14:56:53.705Z,4.00
2018-09-02T14:59:21.774Z,4.67
2018-09-02T15:01:49.901Z,6.40
2018-09-02T15:04:17.954Z,7.57
2018-09-02T15:06:45.998Z,7.33
2018-09-02T15:09:14.063Z,6.03
2018-09-02T15:11:42.123Z,5.67
2018-09-02T15:14:10.330Z,12.33
2018-09-02T15:16:38.395Z,9.20
2018-09-02T15:19:06.468Z,17.47
2018-09-02T15:21:34.538Z,7.03
2018-09-02T15:24:02.616Z,6.60
2018-09-02T15:26:30.682Z,5.47
2018-09-02T15:28:58.942Z,6.87
2018-09-02T15:31:28.555Z,5.80
2018-09-02T15:33:57.276Z,11.43
2018-09-02T15:36:25.410Z,3.50
2018-09-02T15:38:53.497Z,6.30
2018-09-02T15:41:21.561Z,5.43
2018-09-02T15:43:49.621Z,3.47
2018-09-02T15:46:17.687Z,11.80
2018-09-02T15:48:46.011Z,8.70
2018-09-02T15:51:14.079Z,11.13
2018-09-02T15:53:42.162Z,9.07
2018-09-02T15:56:10.213Z,6.30
2018-09-02T15:58:38.265Z,6.00
2018-09-02T16:01:06.448Z,7.10
2018-09-02T16:03:34.471Z,4.57
2018-09-02T16:06:02.825Z,4.03
2018-09-02T16:08:31.071Z,4.60
2018-09-02T16:10:59.153Z,5.60
2018-09-02T16:13:27.209Z,5.00
2018-09-02T16:15:55.275Z,6.17
2018-09-02T16:18:24.353Z,7.13
2018-09-02T16:20:52.384Z,5.17
2018-09-02T16:23:20.505Z,3.63
2018-09-02T16:25:48.593Z,21.43
2018-09-02T16:28:16.667Z,11.33
2018-09-02T16:30:44.734Z,7.73
2018-09-02T16:33:12.785Z,6.67
2018-09-02T16:35:40.855Z,5.23
2018-09-02T16:38:09.890Z,6.20
2018-09-02T16:40:38.209Z,4.90
2018-09-02T16:43:06.263Z,10.33
2018-09-02T16:45:34.322Z,3.47
2018-09-02T16:48:02.425Z,7.90
2018-09-02T16:50:30.481Z,6.10
2018-09-02T16:52:58.600Z,7.10
2018-09-02T16:55:26.618Z,4.40
2018-09-02T16:57:55.341Z,5.90
2018-09-02T17:00:23.379Z,3.63
2018-09-02T17:02:51.514Z,10.87
2018-09-02T17:05:21.929Z,4.40
2018-09-02T17:07:50.834Z,8.17
2018-09-02T17:10:19.325Z,3.47
2018-09-02T17:12:47.431Z,3.90
2018-09-02T17:15:15.459Z,3.70
2018-09-02T17:17:43.529Z,6.40
2018-09-02T17:20:14.985Z,5.87
2018-09-02T17:22:43.041Z,5.13
2018-09-02T17:25:11.121Z,6.57
2018-09-02T17:27:39.169Z,9.23
2018-09-02T17:30:07.213Z,7.90
2018-09-02T17:32:35.348Z,7.60
2018-09-02T17:35:03.437Z,5.53
2018-09-02T17:37:31.498Z,5.30
2018-09-02T17:39:59.570Z,6.57
2018-09-02T17:42:27.622Z,7.63
2018-09-02T17:44:55.674Z,12.20
2018-09-02T17:47:23.818Z,5.63
2018-09-02T17:49:51.880Z,5.83
2018-09-02T17:52:19.933Z,5.23
2018-09-02T17:54:48.006Z,18.63
2018-09-02T17:57:16.092Z,7.00
2018-09-02T17:59:44.754Z,9.07
2018-09-02T18:02:12.851Z,14.23
2018-09-02T18:04:40.846Z,7.53
2018-09-02T18:07:08.903Z,6.70
2018-09-02T18:09:36.962Z,6.10
2018-09-02T18:12:05.233Z,4.80
2018-09-02T18:14:33.310Z,9.10
2018-09-02T18:17:01.570Z,5.47
2018-09-02T18:19:30.650Z,9.03
2018-09-02T18:21:58.705Z,12.30
2018-09-02T18:24:26.789Z,9.50
2018-09-02T18:26:54.843Z,10.67
2018-09-02T18:29:22.897Z,7.60
2018-09-02T18:31:50.982Z,6.73
2018-09-02T18:34:19.021Z,9.00
2018-09-02T18:36:47.111Z,10.10
2018-09-02T18:39:15.229Z,14.10
2018-09-02T18:41:43.273Z,7.50
2018-09-02T18:44:11.278Z,10.20
2018-09-02T18:46:40.237Z,11.20
2018-09-02T18:49:08.300Z,13.80
2018-09-02T18:51:36.991Z,12.00
2018-09-02T18:54:05.171Z,5.27
2018-09-02T18:56:33.246Z,10.07
2018-09-02T18:59:01.301Z,6.87
2018-09-02T19:01:29.386Z,9.27
2018-09-02T19:03:57.459Z,7.30
2018-09-02T19:06:25.530Z,8.10
2018-09-02T19:08:53.598Z,9.37
2018-09-02T19:11:21.690Z,13.47
2018-09-02T19:13:49.750Z,12.43
2018-09-02T19:16:17.883Z,12.43
2018-09-02T19:18:45.918Z,18.20
2018-09-02T19:21:13.985Z,10.50
2018-09-02T19:23:42.150Z,10.93
2018-09-02T19:26:10.343Z,14.60
2018-09-02T19:28:39.169Z,14.47
2018-09-02T19:31:07.416Z,10.10
2018-09-02T19:33:35.493Z,12.10
2018-09-02T19:36:03.571Z,11.00
2018-09-02T19:38:31.654Z,12.37
2018-09-02T19:40:59.709Z,11.90
2018-09-02T19:43:27.769Z,13.27
2018-09-02T19:45:55.838Z,9.63
2018-09-02T19:48:23.892Z,12.73
2018-09-02T19:50:51.943Z,15.07
2018-09-02T19:53:19.981Z,12.60
2018-09-02T19:55:48.074Z,17.03
2018-09-02T19:58:16.127Z,13.00
2018-09-02T20:00:44.205Z,11.30
2018-09-02T20:03:12.478Z,12.40
2018-09-02T20:05:40.641Z,11.27
2018-09-02T20:08:08.717Z,14.10
2018-09-02T20:10:36.781Z,13.43
2018-09-02T20:13:04.841Z,12.87
2018-09-02T20:15:32.947Z,13.10
2018-09-02T20:18:01.057Z,12.50
2018-09-02T20:20:29.117Z,13.93
2018-09-02T20:22:57.213Z,17.03
2018-09-02T20:25:25.294Z,11.17
2018-09-02T20:27:53.353Z,29.03
2018-09-02T20:30:21.965Z,12.33
2018-09-02T20:32:50.023Z,13.13
2018-09-02T20:35:18.092Z,15.23
2018-09-02T20:37:46.193Z,15.17
2018-09-02T20:40:14.769Z,11.53
2018-09-02T20:42:43.630Z,15.33
2018-09-02T20:45:11.679Z,10.53
2018-09-02T20:47:39.738Z,11.37
2018-09-02T20:50:07.804Z,10.57
2018-09-02T20:52:35.875Z,10.37
2018-09-02T20:55:03.919Z,12.20
2018-09-02T20:57:31.997Z,18.20
2018-09-02T21:00:00.081Z,18.83
2018-09-02T21:02:28.192Z,12.00
2018-09-02T21:04:58.206Z,12.20
2018-09-02T21:07:26.261Z,10.43
2018-09-02T21:09:54.321Z,14.93
2018-09-02T21:12:22.383Z,16.83
2018-09-02T21:14:50.437Z,14.53
2018-09-02T21:17:18.490Z,14.83
2018-09-02T21:19:46.599Z,9.33
2018-09-02T21:22:14.646Z,11.50
2018-09-02T21:24:42.694Z,13.27
2018-09-02T21:27:11.109Z,16.13
2018-09-02T21:29:39.163Z,10.70
2018-09-02T21:32:07.197Z,14.60
2018-09-02T21:34:35.403Z,11.30
2018-09-02T21:37:03.558Z,13.63
2018-09-02T21:39:31.526Z,16.10
2018-09-02T21:41:59.591Z,15.83
2018-09-02T21:44:27.639Z,13.30
2018-09-02T21:46:55.669Z,19.33
2018-09-02T21:49:23.738Z,15.37
2018-09-02T21:51:51.798Z,9.23
2018-09-02T21:54:19.866Z,11.70
2018-09-02T21:56:47.916Z,13.60
2018-09-02T21:59:16.013Z,16.60
2018-09-02T22:01:44.053Z,9.63
2018-09-02T22:04:12.144Z,9.10
2018-09-02T22:06:40.154Z,17.97
2018-09-02T22:09:14.909Z,11.70
2018-09-02T22:11:43.414Z,12.73
2018-09-02T22:14:12.365Z,12.73
2018-09-02T22:16:40.470Z,8.13
2018-09-02T22:19:08.658Z,8.83
2018-09-02T22:21:36.937Z,8.03
2018-09-02T22:24:05.074Z,8.33
2018-09-02T22:26:33.692Z,10.87
2018-09-02T22:29:02.501Z,10.53
2018-09-02T22:31:30.551Z,7.43
2018-09-02T22:33:58.597Z,15.60
2018-09-02T22:36:26.637Z,6.53
2018-09-02T22:38:54.697Z,12.03
2018-09-02T22:41:22.737Z,11.50
2018-09-02T22:43:50.817Z,10.50
2018-09-02T22:46:18.853Z,5.40
2018-09-02T22:48:46.906Z,9.00
2018-09-02T22:51:14.951Z,9.20
2018-09-02T22:53:43.183Z,12.57
2018-09-02T22:56:11.452Z,6.47
2018-09-02T22:58:39.506Z,8.00
2018-09-02T23:01:07.553Z,10.07
2018-09-02T23:03:35.582Z,9.87
2018-09-02T23:06:04.526Z,9.53
2018-09-02T23:08:32.596Z,5.77
2018-09-02T23:11:00.629Z,7.00
2018-09-02T23:13:28.670Z,8.67
2018-09-02T23:15:56.747Z,10.23
2018-09-02T23:18:24.798Z,17.30
2018-09-02T23:20:52.862Z,14.37
2018-09-02T23:23:21.094Z,7.47
2018-09-02T23:25:49.125Z,8.10
2018-09-02T23:28:17.169Z,15.43
2018-09-02T23:30:45.234Z,10.43
2018-09-02T23:33:13.285Z,15.13
2018-09-02T23:35:41.352Z,12.57
2018-09-02T23:38:09.388Z,10.97
2018-09-02T23:40:37.533Z,14.23
2018-09-02T23:43:05.629Z,7.33
2018-09-02T23:45:33.686Z,11.10
2018-09-02T23:48:02.881Z,8.30
2018-09-02T23:50:31.097Z,8.80
2018-09-02T23:52:59.133Z,6.90
2018-09-02T23:55:27.239Z,8.63
2018-09-02T23:57:55.341Z,8.50
